METAR AND TAF INFORMATION
METAR FOR VABB
ADDS - METARS form results

(0949 UTC 16 January 2019)
Data provider http://aviationweather.gov/metar/data/
 
METAR text: VABB 160930Z 28010KT 3000 FU NSC 32/14 Q1012 NOSIG
Conditions at: VABB (BOMBAY/SANTACRUZ, IN) observed 0930 UTC 16 January 2019
Temperature: 32.0°C (90°F)
Dewpoint: 14.0°C (57°F) [RH = 34%]
Pressure (altimeter): 29.88 inches Hg (1012.0 mb)
Winds: from the W (280 degrees) at 12 MPH (10 knots; 5.1 m/s)
Visibility: 1.86 miles (2.99 km)
Ceiling: at least 12,000 feet AGL
Clouds: sky clear below 12,000 feet AGL
Weather: FU  (smoke)

METAR text: VABB 160900Z 19008KT 3000 FU NSC 33/14 Q1012 NOSIG
Conditions at: VABB (BOMBAY/SANTACRUZ, IN) observed 0900 UTC 16 January 2019
Temperature: 33.0°C (91°F)
Dewpoint: 14.0°C (57°F) [RH = 32%]
Pressure (altimeter): 29.88 inches Hg (1012.0 mb)
Winds: from the S (190 degrees) at 9 MPH (8 knots; 4.1 m/s)
Visibility: 1.86 miles (2.99 km)
Ceiling: at least 12,000 feet AGL
Clouds: sky clear below 12,000 feet AGL
Weather: FU  (smoke)

Forecast for: VABB (BOMBAY/SANTACRUZ, IN)
Text: TAF VABB 160800Z 1609/1618 28008KT 3000 FU NSC
Forecast period: 0900 to 1600 UTC 16 January 2019
Forecast type: FROM: standard forecast or significant change
Winds: from the W (280 degrees) at 9 MPH (8 knots; 4.1 m/s)
Visibility: 1.86 miles (2.99 km)
Ceiling: unknown
Clouds: missing
Weather: FU  (smoke)
Text: BECMG 1616/1618 VRB03KT 2500 FU
Forecast period: 1600 to 1800 UTC 16 January 2019
Forecast type: BECOMING: Conditions expected to become as follows by 1800 UTC 16 January 2019
Winds: variable direction winds at 3 MPH (3 knots; 1.5 m/s)
Visibility: 1.55 miles (2.49 km)
Ceiling: unknown
Clouds: missing
Weather: FU  (smoke)

 AIRPORT MAP

Esri Leaflet Quickstart
 RUNWAY INFORMATION
Runway 09 Runway length 11302 ft Runway width 148 ft
Runway elevation 15 ft Runway displaced threshold 465 ft Runway heading 89
Runway 27 Runway length 11302 ft Runway width 148 ft
Runway elevation 22 ft Runway displaced threshold 1581 ft Runway heading 269
Runway 14 Runway length 9596 ft Runway width 150 ft
Runway elevation 37 ft Runway displaced threshold 1238 ft Runway heading 134
Runway 32 Runway length 9596 ft Runway width 150 ft
Runway elevation 26 ft Runway displaced threshold 853 ft Runway heading 314

 AIRPORT FREQUENCIES
Type ACC Name MUMBAI Frequency 120.5 MHZ
Type APP Name MUMBAI APP Frequency 127.9 MHZ
Type ATIS Name MUMBAI ATI Frequency 126.4 MHZ
Type CLD Name MUMBAI CLR Frequency 121.85 MHZ
Type GND Name MUMBAI GND Frequency 121.9 MHZ
Type RDO Name MUMBAI RDO Frequency 1008.4 MHZ
Type RDR Name RDR Frequency 119.3 MHZ
Type TWR Name MUMBAI TWR Frequency 118.1 MHZ

 AIRPORT NEAR NAVIGATION AIDS
Type VOR-DME Name Mumbai Frequency 116600 KHZ



Powered by Virtual Airlines Manager [v2.6.2]